createdAt,value
2022-09-09T00:02:28.375Z,41.06
2022-09-09T00:05:21.457Z,41.29
2022-09-09T00:07:57.523Z,41.13
2022-09-09T00:10:26.790Z,41.37
2022-09-09T00:13:10.695Z,41.18
2022-09-09T00:18:56.563Z,41.32
2022-09-09T00:21:32.399Z,41.33
2022-09-09T00:24:00.086Z,41.32
2022-09-09T00:32:30.381Z,41.41
2022-09-09T00:35:16.860Z,41.47
2022-09-09T00:37:45.471Z,41.53
2022-09-09T00:40:33.305Z,41.55
2022-09-09T00:43:22.156Z,41.60
2022-09-09T00:46:48.999Z,41.70
2022-09-09T00:49:15.429Z,41.46
2022-09-09T00:52:00.147Z,41.66
2022-09-09T00:54:29.852Z,41.60
2022-09-09T00:57:14.717Z,41.44
2022-09-09T00:59:59.613Z,41.65
2022-09-09T01:02:47.125Z,41.57
2022-09-09T01:05:25.109Z,41.50
2022-09-09T01:08:00.007Z,41.84
2022-09-09T01:10:47.159Z,41.83
2022-09-09T01:13:24.743Z,41.81
2022-09-09T01:16:02.189Z,41.61
2022-09-09T01:18:35.788Z,41.71
2022-09-09T01:21:28.619Z,41.75
2022-09-09T01:27:06.264Z,41.59
2022-09-09T01:29:33.308Z,41.43
2022-09-09T01:32:24.447Z,41.66
2022-09-09T01:37:30.898Z,41.71
2022-09-09T01:39:57.438Z,41.76
2022-09-09T01:48:46.014Z,41.81
2022-09-09T01:51:12.709Z,41.68
2022-09-09T01:53:42.647Z,41.76
2022-09-09T01:56:22.410Z,41.57
2022-09-09T01:59:20.992Z,41.79
2022-09-09T02:02:01.032Z,41.68
2022-09-09T02:04:39.437Z,41.52
2022-09-09T02:07:20.008Z,41.63
2022-09-09T02:09:51.039Z,41.73
2022-09-09T02:12:23.023Z,41.69
2022-09-09T02:15:00.197Z,41.50
2022-09-09T02:17:37.946Z,41.47
2022-09-09T02:20:09.477Z,41.63
2022-09-09T02:22:40.541Z,41.45
2022-09-09T02:25:09.385Z,41.38
2022-09-09T02:27:36.407Z,41.63
2022-09-09T02:30:05.265Z,41.38
2022-09-09T02:32:35.836Z,41.37
2022-09-09T02:35:10.096Z,41.38
2022-09-09T02:37:39.304Z,41.46
2022-09-09T02:40:08.613Z,41.30
2022-09-09T02:45:32.625Z,41.45
2022-09-09T02:48:31.278Z,41.43
2022-09-09T02:51:06.081Z,41.39
2022-09-09T02:56:44.894Z,41.34
2022-09-09T02:59:12.604Z,41.23
2022-09-09T03:01:40.930Z,41.31
2022-09-09T03:04:09.311Z,41.00
2022-09-09T03:09:17.326Z,41.10
2022-09-09T03:11:43.800Z,41.18
2022-09-09T03:14:12.297Z,40.98
2022-09-09T03:16:38.923Z,41.10
2022-09-09T03:21:47.003Z,41.04
2022-09-09T03:24:15.019Z,41.12
2022-09-09T03:26:47.525Z,41.03
2022-09-09T03:31:55.099Z,40.98
2022-09-09T03:37:14.402Z,41.15
2022-09-09T03:39:40.890Z,40.85
2022-09-09T03:42:07.558Z,40.99
2022-09-09T03:44:34.022Z,40.83
2022-09-09T03:47:01.644Z,40.70
2022-09-09T03:49:32.006Z,41.00
2022-09-09T03:51:59.431Z,40.96
2022-09-09T03:54:26.509Z,40.66
2022-09-09T03:56:53.024Z,40.72
2022-09-09T03:59:19.572Z,40.74
2022-09-09T04:01:46.549Z,41.02
2022-09-09T04:04:13.477Z,40.77
2022-09-09T04:06:39.985Z,40.80
2022-09-09T04:09:06.556Z,40.85
2022-09-09T04:11:33.102Z,40.81
2022-09-09T04:13:59.543Z,40.89
2022-09-09T04:16:26.382Z,40.90
2022-09-09T04:18:58.008Z,40.68
2022-09-09T04:21:24.666Z,40.82
2022-09-09T04:23:52.238Z,40.88
2022-09-09T04:26:27.130Z,40.78
2022-09-09T04:28:54.020Z,40.72
2022-09-09T04:31:32.083Z,40.79
2022-09-09T04:33:58.583Z,40.83
2022-09-09T04:36:25.106Z,41.17
2022-09-09T04:41:32.484Z,40.79
2022-09-09T04:43:59.907Z,40.83
2022-09-09T04:46:29.137Z,40.97
2022-09-09T04:48:55.603Z,40.91
2022-09-09T04:51:22.261Z,41.24
2022-09-09T04:53:49.803Z,41.32
2022-09-09T04:56:17.702Z,41.35
2022-09-09T04:58:48.921Z,41.17
2022-09-09T05:01:22.024Z,41.19
2022-09-09T05:03:48.817Z,41.17
2022-09-09T05:06:17.580Z,41.07
2022-09-09T05:08:44.843Z,41.11
2022-09-09T05:11:25.286Z,41.36
2022-09-09T05:13:51.848Z,41.32
2022-09-09T05:16:19.929Z,41.32
2022-09-09T05:21:29.509Z,41.01
2022-09-09T05:23:56.040Z,41.03
2022-09-09T05:26:23.728Z,41.04
2022-09-09T05:28:50.542Z,40.95
2022-09-09T05:31:22.520Z,41.27
2022-09-09T05:33:50.504Z,41.20
2022-09-09T05:36:19.928Z,41.12
2022-09-09T05:38:46.723Z,41.28
2022-09-09T05:41:16.615Z,41.06
2022-09-09T05:43:45.384Z,40.94
2022-09-09T05:51:35.549Z,41.25
2022-09-09T05:54:09.760Z,41.16
2022-09-09T05:56:36.234Z,41.25
2022-09-09T05:59:02.700Z,41.18
2022-09-09T06:01:36.768Z,41.08
2022-09-09T06:06:45.482Z,40.99
2022-09-09T06:09:12.442Z,41.04
2022-09-09T06:11:40.575Z,41.24
2022-09-09T06:14:07.614Z,40.93
2022-09-09T06:16:34.584Z,41.27
2022-09-09T06:21:43.153Z,41.08
2022-09-09T06:24:09.636Z,41.01
2022-09-09T06:29:18.549Z,41.09
2022-09-09T06:31:45.200Z,41.04
2022-09-09T06:34:11.687Z,40.91
2022-09-09T06:36:39.730Z,40.89
2022-09-09T06:39:13.706Z,40.94
2022-09-09T06:41:40.968Z,41.25
2022-09-09T06:44:07.648Z,41.22
2022-09-09T06:49:15.271Z,41.05
2022-09-09T06:51:43.970Z,40.96
2022-09-09T06:54:12.310Z,41.35
2022-09-09T06:56:44.264Z,41.05
2022-09-09T06:59:11.756Z,41.23
2022-09-09T07:01:41.969Z,41.26
2022-09-09T07:04:09.878Z,41.10
2022-09-09T07:06:47.292Z,41.33
2022-09-09T07:09:17.375Z,41.35
2022-09-09T07:11:49.647Z,41.45
2022-09-09T07:14:16.623Z,41.38
2022-09-09T07:16:45.205Z,41.44
2022-09-09T07:19:16.413Z,41.45
2022-09-09T07:24:24.708Z,41.35
2022-09-09T07:29:33.770Z,41.61
2022-09-09T07:32:00.646Z,41.25
2022-09-09T07:34:27.204Z,41.67
2022-09-09T07:39:34.268Z,41.55
2022-09-09T07:42:00.869Z,41.51
2022-09-09T07:44:28.093Z,41.46
2022-09-09T07:46:55.041Z,41.42
2022-09-09T07:49:28.554Z,41.29
2022-09-09T07:51:57.797Z,41.34
2022-09-09T07:54:24.693Z,41.46
2022-09-09T07:56:52.304Z,41.37
2022-09-09T07:59:19.784Z,41.35
2022-09-09T08:01:54.435Z,41.46
2022-09-09T08:04:22.485Z,41.46
2022-09-09T08:06:54.181Z,41.44
2022-09-09T08:09:21.699Z,41.53
2022-09-09T08:11:48.662Z,41.29
2022-09-09T08:14:15.302Z,41.62
2022-09-09T08:16:45.422Z,41.35
2022-09-09T08:19:12.742Z,41.43
2022-09-09T08:21:41.391Z,41.64
2022-09-09T08:24:09.508Z,41.45
2022-09-09T08:26:39.291Z,41.38
2022-09-09T08:29:07.834Z,41.45
2022-09-09T08:31:38.085Z,41.60
2022-09-09T08:34:05.468Z,41.54
2022-09-09T08:36:38.996Z,41.63
2022-09-09T08:39:08.098Z,41.33
2022-09-09T08:41:49.475Z,41.34
2022-09-09T08:44:49.107Z,41.57
2022-09-09T08:47:37.519Z,41.44
2022-09-09T08:50:34.966Z,41.62
2022-09-09T08:53:21.493Z,41.41
2022-09-09T08:55:59.682Z,41.24
2022-09-09T08:58:31.677Z,41.70
2022-09-09T09:01:10.255Z,41.35
2022-09-09T09:03:40.316Z,41.42
2022-09-09T09:06:37.170Z,41.57
2022-09-09T09:09:22.255Z,41.70
2022-09-09T09:11:52.350Z,41.46
2022-09-09T09:14:26.023Z,41.79
2022-09-09T09:17:01.023Z,41.69
2022-09-09T09:19:29.479Z,41.55
2022-09-09T09:22:26.350Z,41.67
2022-09-09T09:25:03.884Z,41.58
2022-09-09T09:27:45.048Z,41.68
2022-09-09T09:30:30.330Z,41.68
2022-09-09T09:33:02.000Z,41.85
2022-09-09T09:35:28.619Z,42.20
2022-09-09T09:40:56.178Z,42.20
2022-09-09T09:43:29.377Z,42.46
2022-09-09T09:46:18.402Z,42.27
2022-09-09T09:48:46.594Z,42.29
2022-09-09T09:51:24.598Z,42.58
2022-09-09T09:53:53.765Z,42.77
2022-09-09T09:56:29.866Z,42.80
2022-09-09T09:58:56.570Z,43.11
2022-09-09T10:01:34.271Z,42.98
2022-09-09T10:04:17.357Z,43.33
2022-09-09T10:06:43.874Z,43.33
2022-09-09T10:09:27.278Z,43.42
2022-09-09T10:12:19.998Z,43.39
2022-09-09T10:15:03.307Z,43.73
2022-09-09T10:18:07.305Z,43.72
2022-09-09T10:20:45.547Z,43.62
2022-09-09T10:23:55.837Z,43.75
2022-09-09T10:26:44.533Z,44.04
2022-09-09T10:29:44.881Z,44.47
2022-09-09T10:32:11.638Z,44.64
2022-09-09T10:35:11.111Z,45.54
2022-09-09T10:38:12.152Z,45.46
2022-09-09T10:40:52.218Z,45.55
2022-09-09T10:43:30.667Z,45.50
2022-09-09T10:46:05.832Z,45.62
2022-09-09T10:48:57.650Z,45.86
2022-09-09T10:51:47.029Z,45.94
2022-09-09T10:54:34.324Z,46.31
2022-09-09T10:57:45.276Z,46.64
2022-09-09T11:00:25.087Z,47.01
2022-09-09T11:03:01.301Z,46.88
2022-09-09T11:05:35.413Z,47.08
2022-09-09T11:08:16.678Z,46.84
2022-09-09T11:11:08.300Z,46.66
2022-09-09T11:13:52.875Z,46.31
2022-09-09T11:16:31.730Z,46.13
2022-09-09T11:19:14.490Z,46.13
2022-09-09T11:21:48.222Z,46.34
2022-09-09T11:24:26.950Z,46.29
2022-09-09T11:27:17.123Z,45.90
2022-09-09T11:30:02.535Z,45.78
2022-09-09T11:32:55.913Z,45.97
2022-09-09T11:36:04.428Z,45.60
2022-09-09T11:38:46.214Z,45.89
2022-09-09T11:41:16.094Z,46.13
2022-09-09T11:43:53.778Z,45.96
2022-09-09T11:46:24.126Z,46.20
2022-09-09T11:49:02.337Z,46.22
2022-09-09T11:51:31.628Z,46.49
2022-09-09T11:54:03.958Z,46.72
2022-09-09T11:56:32.369Z,46.97
2022-09-09T11:59:04.445Z,46.75
2022-09-09T12:01:33.779Z,46.62
2022-09-09T12:04:06.306Z,46.68
2022-09-09T12:06:34.504Z,46.95
2022-09-09T12:09:34.481Z,46.78
2022-09-09T12:12:29.243Z,46.95
2022-09-09T12:15:02.540Z,47.04
2022-09-09T12:17:31.706Z,46.99
2022-09-09T12:20:09.622Z,47.05
2022-09-09T12:22:39.320Z,47.27
2022-09-09T12:25:27.651Z,47.23
2022-09-09T12:27:54.558Z,46.95
2022-09-09T12:30:22.646Z,46.87
2022-09-09T12:33:02.377Z,46.97
2022-09-09T12:35:32.068Z,47.00
2022-09-09T12:38:05.090Z,47.08
2022-09-09T12:40:36.139Z,47.03
2022-09-09T12:43:18.139Z,46.82
2022-09-09T12:45:46.328Z,46.96
2022-09-09T12:48:16.568Z,47.15
2022-09-09T12:50:51.628Z,47.08
2022-09-09T12:53:18.142Z,47.17
2022-09-09T12:55:53.080Z,47.01
2022-09-09T12:58:21.625Z,46.82
2022-09-09T13:00:58.970Z,46.95
2022-09-09T13:03:28.309Z,46.80
2022-09-09T13:06:01.260Z,47.09
2022-09-09T13:08:28.305Z,46.73
2022-09-09T13:11:02.955Z,46.86
2022-09-09T13:13:40.178Z,46.78
2022-09-09T13:16:19.211Z,46.98
2022-09-09T13:18:45.957Z,46.79
2022-09-09T13:21:12.899Z,46.95
2022-09-09T13:23:40.071Z,46.94
2022-09-09T13:26:22.541Z,46.86
2022-09-09T13:28:49.775Z,46.72
2022-09-09T13:31:30.431Z,46.98
2022-09-09T13:33:57.147Z,46.78
2022-09-09T13:36:35.361Z,47.22
2022-09-09T13:39:05.054Z,47.15
2022-09-09T13:41:35.832Z,47.27
2022-09-09T13:44:07.488Z,47.28
2022-09-09T13:46:41.833Z,47.09
2022-09-09T13:49:09.825Z,47.08
2022-09-09T13:51:48.217Z,47.35
2022-09-09T13:54:16.905Z,47.27
2022-09-09T13:56:44.109Z,47.39
2022-09-09T13:59:14.132Z,47.41
2022-09-09T14:01:40.719Z,47.09
2022-09-09T14:04:07.594Z,46.95
2022-09-09T14:06:39.224Z,47.11
2022-09-09T14:09:12.627Z,47.04
2022-09-09T14:11:39.887Z,46.92
2022-09-09T14:14:06.405Z,47.04
2022-09-09T14:16:32.897Z,47.23
2022-09-09T14:19:00.204Z,46.91
2022-09-09T14:21:27.434Z,47.05
2022-09-09T14:23:53.983Z,46.92
2022-09-09T14:26:24.898Z,46.75
2022-09-09T14:28:56.376Z,46.94
2022-09-09T14:31:24.451Z,46.71
2022-09-09T14:33:51.970Z,46.68
2022-09-09T14:36:18.650Z,46.73
2022-09-09T14:38:45.212Z,46.75
2022-09-09T14:41:20.754Z,46.62
2022-09-09T14:43:47.566Z,46.86
2022-09-09T14:46:19.733Z,46.69
2022-09-09T14:51:26.199Z,46.99
2022-09-09T14:53:56.480Z,46.67
2022-09-09T14:56:24.078Z,46.71
2022-09-09T14:58:52.363Z,46.38
2022-09-09T15:01:20.303Z,46.76
2022-09-09T15:04:06.353Z,46.81
2022-09-09T15:06:38.348Z,47.18
2022-09-09T15:09:05.209Z,47.37
2022-09-09T15:11:38.660Z,47.39
2022-09-09T15:14:06.748Z,47.59
2022-09-09T15:16:33.420Z,47.39
2022-09-09T15:19:01.780Z,47.73
2022-09-09T15:21:31.761Z,47.57
2022-09-09T15:23:58.861Z,47.57
2022-09-09T15:26:26.823Z,47.67
2022-09-09T15:28:53.624Z,47.56
2022-09-09T15:31:23.181Z,47.56
2022-09-09T15:33:50.814Z,47.49
2022-09-09T15:36:22.910Z,47.45
2022-09-09T15:38:50.210Z,47.40
2022-09-09T15:41:18.391Z,47.41
2022-09-09T15:43:50.877Z,47.49
2022-09-09T15:46:27.340Z,47.42
2022-09-09T15:48:59.499Z,47.50
2022-09-09T15:51:43.882Z,47.43
2022-09-09T15:54:20.321Z,47.36
2022-09-09T15:56:49.718Z,47.13
2022-09-09T15:59:16.389Z,47.11
2022-09-09T16:01:43.992Z,47.16
2022-09-09T16:04:10.886Z,47.16
2022-09-09T16:06:37.572Z,47.17
2022-09-09T16:09:06.642Z,47.41
2022-09-09T16:11:36.964Z,47.29
2022-09-09T16:14:04.935Z,47.18
2022-09-09T16:16:31.723Z,47.09
2022-09-09T16:19:05.360Z,47.08
2022-09-09T16:21:35.306Z,47.04
2022-09-09T16:24:03.613Z,47.24
2022-09-09T16:26:32.406Z,47.00
2022-09-09T16:28:59.882Z,47.30
2022-09-09T16:31:28.260Z,47.17
2022-09-09T16:33:54.920Z,47.15
2022-09-09T16:36:23.942Z,47.11
2022-09-09T16:38:56.065Z,47.13
2022-09-09T16:41:23.058Z,47.28
2022-09-09T16:43:54.897Z,47.22
2022-09-09T16:46:22.561Z,47.22
2022-09-09T16:48:50.262Z,47.00
2022-09-09T16:51:18.151Z,47.41
2022-09-09T16:53:45.161Z,47.16
2022-09-09T16:56:14.866Z,47.17
2022-09-09T16:58:43.963Z,47.05
2022-09-09T17:01:15.077Z,46.95
2022-09-09T17:03:42.009Z,47.21
2022-09-09T17:06:13.666Z,46.82
2022-09-09T17:08:42.362Z,47.00
2022-09-09T17:11:16.774Z,47.15
2022-09-09T17:13:44.646Z,46.83
2022-09-09T17:16:13.353Z,46.98
2022-09-09T17:18:40.159Z,46.89
2022-09-09T17:21:08.836Z,46.91
2022-09-09T17:23:38.811Z,46.74
2022-09-09T17:26:10.947Z,46.78
2022-09-09T17:28:41.732Z,46.63
2022-09-09T17:31:10.640Z,46.77
2022-09-09T17:33:40.788Z,46.67
2022-09-09T17:36:15.881Z,46.63
2022-09-09T17:38:45.640Z,46.31
2022-09-09T17:41:15.934Z,46.50
2022-09-09T17:43:43.424Z,46.59
2022-09-09T17:46:41.317Z,46.45
2022-09-09T17:49:13.412Z,46.32
2022-09-09T17:51:42.320Z,46.45
2022-09-09T17:54:13.158Z,46.54
2022-09-09T17:56:41.345Z,46.30
2022-09-09T17:59:10.243Z,46.20
2022-09-09T18:01:39.589Z,46.42
2022-09-09T18:04:08.985Z,46.17
2022-09-09T18:06:40.064Z,46.34
2022-09-09T18:09:09.819Z,45.99
2022-09-09T18:11:45.138Z,46.32
2022-09-09T18:14:15.687Z,46.12
2022-09-09T18:16:42.410Z,46.25
2022-09-09T18:19:13.854Z,46.04
2022-09-09T18:21:41.969Z,46.02
2022-09-09T18:24:10.577Z,46.34
2022-09-09T18:26:37.967Z,46.28
2022-09-09T18:29:07.828Z,46.30
2022-09-09T18:31:35.626Z,46.26
2022-09-09T18:34:03.931Z,46.06
2022-09-09T18:36:34.321Z,45.93
2022-09-09T18:39:03.637Z,45.92
2022-09-09T18:41:32.782Z,45.94
2022-09-09T18:44:02.442Z,46.24
2022-09-09T18:46:30.876Z,45.90
2022-09-09T18:48:57.692Z,46.08
2022-09-09T18:51:26.505Z,46.12
2022-09-09T18:53:55.395Z,45.74
2022-09-09T18:56:22.581Z,45.78
2022-09-09T18:58:57.963Z,45.59
2022-09-09T19:01:25.652Z,45.80
2022-09-09T19:03:52.360Z,45.66
2022-09-09T19:06:23.832Z,45.86
2022-09-09T19:08:55.240Z,45.65
2022-09-09T19:11:24.227Z,45.53
2022-09-09T19:13:57.205Z,45.68
2022-09-09T19:16:27.783Z,45.76
2022-09-09T19:18:54.356Z,46.00
2022-09-09T19:21:25.363Z,45.89
2022-09-09T19:23:54.984Z,45.94
2022-09-09T19:26:22.155Z,46.03
2022-09-09T19:28:50.144Z,45.93
2022-09-09T19:31:18.831Z,46.02
2022-09-09T19:33:47.232Z,45.81
2022-09-09T19:36:17.798Z,46.13
2022-09-09T19:38:45.711Z,45.74
2022-09-09T19:41:15.483Z,45.80
2022-09-09T19:43:42.195Z,45.89
2022-09-09T19:46:11.749Z,45.80
2022-09-09T19:48:41.029Z,45.98
2022-09-09T19:51:19.163Z,45.88
2022-09-09T19:53:51.013Z,45.93
2022-09-09T19:56:19.549Z,45.78
2022-09-09T19:58:47.659Z,45.69
2022-09-09T20:01:17.220Z,45.71
2022-09-09T20:03:45.599Z,45.99
2022-09-09T20:06:15.707Z,45.82
2022-09-09T20:08:46.021Z,45.77
2022-09-09T20:11:12.875Z,45.92
2022-09-09T20:13:39.456Z,45.79
2022-09-09T20:16:11.389Z,45.77
2022-09-09T20:18:42.303Z,45.84
2022-09-09T20:21:13.161Z,46.10
2022-09-09T20:23:40.407Z,46.00
2022-09-09T20:26:09.691Z,45.81
2022-09-09T20:28:38.509Z,45.96
2022-09-09T20:31:07.031Z,45.76
2022-09-09T20:33:35.775Z,46.07
2022-09-09T20:36:19.974Z,45.93
2022-09-09T20:38:53.121Z,45.75
2022-09-09T20:41:22.778Z,46.23
2022-09-09T20:43:54.689Z,46.02
2022-09-09T20:46:27.051Z,46.16
2022-09-09T20:49:00.808Z,45.98
2022-09-09T20:51:31.172Z,46.02
2022-09-09T20:54:00.459Z,45.98
2022-09-09T20:56:29.280Z,45.98
2022-09-09T20:58:55.878Z,46.08
2022-09-09T21:01:22.504Z,45.94
2022-09-09T21:03:49.021Z,45.58
2022-09-09T21:06:17.215Z,45.94
2022-09-09T21:08:44.294Z,45.81
2022-09-09T21:11:10.790Z,45.92
2022-09-09T21:13:39.343Z,45.80
2022-09-09T21:16:08.578Z,45.79
2022-09-09T21:18:36.080Z,45.57
2022-09-09T21:21:03.701Z,45.40
2022-09-09T21:23:31.354Z,45.73
2022-09-09T21:25:57.824Z,45.58
2022-09-09T21:28:25.719Z,45.34
2022-09-09T21:30:55.798Z,45.67
2022-09-09T21:33:25.271Z,45.45
2022-09-09T21:35:51.766Z,45.56
2022-09-09T21:38:20.995Z,45.38
2022-09-09T21:40:51.516Z,45.50
2022-09-09T21:43:19.706Z,45.60
2022-09-09T21:45:46.707Z,45.47
2022-09-09T21:48:15.612Z,45.77
2022-09-09T21:50:44.638Z,45.52
2022-09-09T21:53:13.062Z,45.53
2022-09-09T21:55:47.808Z,45.60
2022-09-09T21:58:16.170Z,45.62
2022-09-09T22:00:45.741Z,45.65
2022-09-09T22:03:14.773Z,45.61
2022-09-09T22:05:42.904Z,45.60
2022-09-09T22:08:11.232Z,45.96
2022-09-09T22:10:40.365Z,45.64
2022-09-09T22:13:07.299Z,45.62
2022-09-09T22:15:34.764Z,45.69
2022-09-09T22:18:04.994Z,45.95
2022-09-09T22:20:33.382Z,46.04
2022-09-09T22:23:03.180Z,46.00
2022-09-09T22:25:35.138Z,45.67
2022-09-09T22:28:07.094Z,46.05
2022-09-09T22:30:34.052Z,45.75
2022-09-09T22:33:03.843Z,45.75
2022-09-09T22:35:30.295Z,45.93
2022-09-09T22:37:57.827Z,45.68
2022-09-09T22:40:24.409Z,45.75
2022-09-09T22:42:53.114Z,45.92
2022-09-09T22:45:20.864Z,45.86
2022-09-09T22:47:47.676Z,45.85
2022-09-09T22:50:14.242Z,45.86
2022-09-09T22:52:40.729Z,46.07
2022-09-09T22:55:07.867Z,45.91
2022-09-09T22:57:34.433Z,45.93
2022-09-09T23:00:01.480Z,46.03
2022-09-09T23:02:29.007Z,45.78
2022-09-09T23:04:55.572Z,45.84
2022-09-09T23:07:23.402Z,45.76
2022-09-09T23:09:49.883Z,45.63
2022-09-09T23:12:18.478Z,45.67
2022-09-09T23:14:44.930Z,45.79
2022-09-09T23:17:14.590Z,45.81
2022-09-09T23:19:41.544Z,45.62
2022-09-09T23:22:08.852Z,45.88
2022-09-09T23:24:35.919Z,45.82
2022-09-09T23:27:02.377Z,45.64
2022-09-09T23:29:29.368Z,45.70
2022-09-09T23:31:56.225Z,45.97
2022-09-09T23:34:22.776Z,45.58
2022-09-09T23:36:49.310Z,45.51
2022-09-09T23:39:15.846Z,45.85
2022-09-09T23:41:42.707Z,45.81
2022-09-09T23:44:10.027Z,45.57
2022-09-09T23:46:36.975Z,45.51
2022-09-09T23:49:04.091Z,45.56
2022-09-09T23:51:31.886Z,45.77
2022-09-09T23:54:01.519Z,45.61
2022-09-09T23:56:30.003Z,45.68
2022-09-09T23:58:56.823Z,45.73
